Weather observations for the past three days for
Lakeland Linder International Airport
| Date | Time (edt) | Wind (kph) | Vis. (km) | Weather | Sky Cond. | Temperature (ºC) | Relative Humidity | Wind Chill (°C) | Heat Index (°C) | Pressure | Precipitation (cm) | ||||||
|---|---|---|---|---|---|---|---|---|---|---|---|---|---|---|---|---|---|
| Air | Dwpt | 6 hour | altimeter (cm) | sea level (mb) | 1 hr | 3 hr | 6 hr | ||||||||||
| Max. | Min. | ||||||||||||||||
| 04 | 22:50 | E 6 | 16.09 | Clear | SKC | 27 | 26 | 94% | 31 | 76.2 | 0.0 | ||||||
| 04 | 21:50 | E 9 | 16.09 | Clear | SKC | 28 | 26 | 89% | 34 | 76.2 | 0.0 | ||||||
| 04 | 20:50 | E 9 | 16.09 | Clear | SKC | 28 | 26 | 89% | 34 | 76.15 | 0.0 | ||||||
| 04 | 19:50 | N 13 | 16.09 | Partly Cloudy | SCT045 | 29 | 26 | 84% | 36 | 76.15 | 0.0 | ||||||
| 04 | 17:50 | S 9 | 16.09 | Clear | SKC | 32 | 26 | 71% | 41 | 76.05 | 0.0 | ||||||
| 04 | 16:50 | S 11 | 16.09 | Clear | SKC | 31 | 26 | 75% | 39 | 76.07 | 0.0 | ||||||
| 04 | 15:50 | S 11 | 16.09 | Clear | SKC | 30 | 26 | 79% | 37 | 76.07 | 0.0 | ||||||
| 04 | 14:50 | Calm | 16.09 | Thunderstorm in Vicinity | FEW042 | 31 | 25 | 70% | 38 | 76.15 | 0.0 | ||||||
| 04 | 13:50 | SW 9 | 16.09 | Showers in Vicinity | FEW052 | 33 | 28 | 75% | 46 | 76.17 | 0.0 | ||||||
| 04 | 12:50 | W 15 | 16.09 | Showers in Vicinity | BKN028 | 32 | 27 | 75% | 42 | 76.2 | 0.0 | ||||||
| 04 | 11:50 | S 15 | 16.09 | Mostly Cloudy | BKN020 | 33 | 27 | 71% | 44 | 76.25 | 0.0 | ||||||
| 04 | 10:50 | SE 9 | 16.09 | Mostly Cloudy | BKN013 | 31 | 27 | 79% | 41 | 76.23 | 0.0 | ||||||
| 04 | 09:50 | S 11 | 16.09 | Clear | SKC | 29 | 27 | 89% | 37 | 76.2 | 0.0 | ||||||
| 04 | 08:50 | Calm | 16.09 | Clear | SKC | 27 | 26 | 94% | 31 | 76.17 | 0.0 | ||||||
| 04 | 07:50 | S 6 | 16.09 | Clear | SKC | 26 | 26 | 100% | 28 | 76.17 | 0.0 | ||||||
| 04 | 06:50 | Calm | 16.09 | Clear | SKC | 25 | 25 | 100% | 25 | 76.12 | 0.0 | ||||||
| 04 | 05:50 | SE 6 | 16.09 | Clear | SKC | 24 | 24 | 100% | 23 | 76.07 | 0.0 | ||||||
| 04 | 04:50 | Calm | 16.09 | Clear | SKC | 25 | 25 | 100% | 25 | 76.07 | 0.0 | ||||||
| 04 | 03:50 | Calm | 16.09 | Clear | SKC | 25 | 25 | 100% | 25 | 76.07 | 0.0 | ||||||
| 04 | 02:50 | Calm | 16.09 | Clear | SKC | 25 | 25 | 100% | 25 | 76.07 | 0.0 | ||||||
| 04 | 01:50 | SE 7 | 16.09 | Clear | SKC | 25 | 25 | 100% | 25 | 76.07 | 0.0 | ||||||
| 04 | 00:50 | Calm | 16.09 | Clear | SKC | 25 | 25 | 100% | 25 | 76.15 | 0.0 | ||||||
| 03 | 23:50 | E 6 | 16.09 | Clear | SKC | 25 | 25 | 100% | 25 | 76.15 | 0.0 | ||||||
| 03 | 22:50 | SE 9 | 16.09 | Clear | SKC | 25 | 25 | 100% | 25 | 76.15 | 0.0 | ||||||
| 03 | 21:50 | SE 9 | 16.09 | Clear | SKC | 25 | 25 | 100% | 25 | 76.1 | 0.0 | ||||||
| 03 | 20:50 | E 6 | 16.09 | Partly Cloudy | FEW031 SCT041 | 25 | 25 | 100% | 25 | 76.1 | 0.0 | ||||||
| 03 | 19:50 | Calm | 16.09 | Thunderstorm in Vicinity | SKC | 26 | 25 | 94% | 28 | 76.1 | 0.0 | ||||||
| 03 | 18:50 | SE 11 | 9.66 | Thunderstorm in Vicinity | FEW024 BKN070 | 25 | 25 | 100% | 25 | 76.05 | 0.0 | ||||||
| 03 | 17:50 | NE 24 | 1.61 | Thunderstorm Heavy Rain | BKN023 | 26 | 26 | 100% | 28 | 76.02 | 0.0 | ||||||
| 03 | 16:55 | E 7 | 16.09 | Mostly Cloudy | SCT036 BKN046 BKN055 | 31 | 26 | 75% | 39 | 75.92 | 0.0 | ||||||
| 03 | 15:50 | Calm | 16.09 | Clear | SKC | 34 | 24 | 56% | 41 | 76 | 0.0 | ||||||
| 03 | 14:50 | SE 15 | 16.09 | Showers in Vicinity | BKN035 | 33 | 25 | 63% | 41 | 76.02 | 0.0 | ||||||
| 03 | 13:50 | Calm | 16.09 | Mostly Cloudy | BKN030 | 32 | 25 | 67% | 39 | 76.07 | 0.0 | ||||||
| 03 | 12:50 | E 7 | 16.09 | Mostly Cloudy | BKN028 BKN034 | 31 | 26 | 75% | 39 | 76.15 | 0.0 | ||||||
| 03 | 11:50 | E 7 | 16.09 | Partly Cloudy | BKN018 SCT025 | 30 | 26 | 79% | 37 | 76.17 | 0.0 | ||||||
| 03 | 10:50 | SE 6 | 16.09 | Partly Cloudy | BKN012 SCT020 | 29 | 26 | 84% | 36 | 76.17 | 0.0 | ||||||
| 03 | 09:50 | E 11 | 14.48 | Mostly Cloudy | SCT006 BKN010 | 28 | 26 | 89% | 34 | 76.17 | 0.0 | ||||||
| 03 | 09:40 | E 11 | 14.48 | Mostly Cloudy | BKN010 | 28 | 26 | 89% | 34 | 76.17 | 0.0 | ||||||
| 03 | 08:50 | SE 4 | 14.48 | Overcast | OVC009 | 26 | 26 | 100% | 28 | 76.15 | 0.0 | ||||||
| 03 | 07:50 | Calm | 12.87 | Mostly Cloudy | BKN006 | 26 | 26 | 100% | 28 | 76.1 | 0.0 | ||||||
| 03 | 07:25 | Calm | 12.87 | Mostly Cloudy | SCT005 BKN010 | 26 | 26 | 100% | 28 | 76.07 | 0.0 | ||||||
| 03 | 06:50 | Calm | 12.87 | Partly Cloudy | SCT005 | 26 | 26 | 100% | 28 | 76.05 | 0.0 | ||||||
| 03 | 05:55 | NE 9 | 16.09 | Fair | CLR | 25.7 | 25.7 | 100% | 27 | 76.02 | 0.0 | ||||||
| 03 | 05:50 | E 9 | 16.09 | Fog/Mist | SKC | 26 | 26 | 100% | 28 | 76.02 | 0.0 | ||||||
| 03 | 05:35 | NE 9 | 16.09 | Fair | CLR | 25.7 | 25.7 | 100% | 27 | 76.02 | 0.0 | ||||||
| 03 | 05:15 | E 9 | 16.09 | Fair | CLR | 25.5 | 25.5 | 100% | 27 | 76.02 | 0.0 | ||||||
| 03 | 04:55 | E 9 | 16.09 | Fair | CLR | 25.5 | 25.5 | 100% | 27 | 76 | 0.0 | 0.03 | |||||
| 03 | 04:35 | E 7 | 16.09 | Fair | CLR | 25.6 | 25.6 | 100% | 27 | 76 | 0.0 | ||||||
| 03 | 04:15 | E 9 | 16.09 | Partly Cloudy | FEW250 SCT280 | 25.7 | 25.7 | 100% | 27 | 76.02 | 0.0 | ||||||
| 03 | 03:55 | NE 9 | 16.09 | Partly Cloudy | SCT250 | 25.7 | 25.7 | 100% | 27 | 76.02 | 0.0 | ||||||
| 03 | 03:50 | NE 7 | 16.09 | Clear | SKC | 26 | 26 | 100% | 28 | 76.02 | 0.0 | ||||||
| 03 | 03:35 | NE 6 | 16.09 | Fair | CLR | 25.8 | 25.8 | 100% | 28 | 76.02 | 0.0 | ||||||
| 03 | 03:15 | E 7 | 16.09 | A Few Clouds | FEW014 | 25.8 | 25.8 | 100% | 28 | 76.05 | 0.0 | ||||||
| 03 | 02:55 | E 6 | 16.09 | A Few Clouds | FEW290 | 25.8 | 25.8 | 100% | 28 | 76.05 | 0.0 | 0.03 | |||||
| 03 | 02:50 | E 6 | 16.09 | Clear | SKC | 26 | 26 | 100% | 28 | 76.05 | 0.0 | ||||||
| 03 | 02:35 | Calm | 16.09 | Fair | CLR | 25.9 | 25.9 | 100% | 28 | 76.07 | 0.0 | ||||||
| 03 | 02:15 | E 6 | 16.09 | Fair | CLR | 26.1 | 26.1 | 100% | 29 | 76.07 | 0.0 | ||||||
| 03 | 01:50 | E 6 | 16.09 | Partly Cloudy | SCT190 | 26 | 26 | 100% | 28 | 76.07 | 0.0 | ||||||
| 03 | 00:50 | E 9 | 16.09 | Overcast | SCT180 OVC200 | 26 | 26 | 100% | 28 | 76.12 | 0.0 | ||||||
| 02 | 23:50 | E 6 | 16.09 | Clear | SKC | 26 | 26 | 100% | 28 | 76.15 | 0.0 | ||||||
| 02 | 22:50 | NE 6 | 16.09 | Clear | SKC | 26 | 26 | 100% | 28 | 76.17 | 0.0 | ||||||
| 02 | 21:50 | Calm | 12.87 | Clear | SKC | 26 | 26 | 100% | 28 | 76.15 | 0.0 | ||||||
| 02 | 20:50 | N 7 | 11.27 | Thunderstorm in Vicinity | SKC | 26 | 26 | 100% | 28 | 76.1 | 0.0 | ||||||
| 02 | 19:50 | SW 6 | 9.66 | Thunderstorm in Vicinity | FEW028 SCT075 OVC090 | 26 | 26 | 100% | 28 | 76.1 | 0.0 | ||||||
| 02 | 18:50 | Calm | 9.66 | Thunderstorm in Vicinity | FEW033 SCT075 BKN095 | 26 | 26 | 100% | 28 | 76.1 | 0.0 | ||||||
| 02 | 17:50 | SE 9 | 11.27 | Thunderstorm in Vicinity | SCT055 SCT120 | 26 | 25 | 94% | 28 | 76.05 | 0.0 | ||||||
| 02 | 16:50 | N 24 G 33 | 12.87 | Thunderstorm in Vicinity | BKN040 | 32 | 26 | 71% | 41 | 76 | 0.0 | ||||||
| 02 | 15:50 | N 13 | 16.09 | Thunderstorm in Vicinity | SCT039 BKN048 | 33 | 26 | 67% | 42 | 76.02 | 0.0 | ||||||
| 02 | 14:50 | N 13 | 16.09 | Partly Cloudy | SCT040 | 32 | 26 | 71% | 41 | 76.1 | 0.0 | ||||||
| 02 | 13:50 | N 7 | 16.09 | Partly Cloudy | SCT030 | 31 | 26 | 75% | 39 | 76.15 | 0.0 | ||||||
| 02 | 12:50 | Vrbl 13 | 16.09 | Partly Cloudy | SCT025 | 31 | 26 | 75% | 39 | 76.23 | 0.0 | ||||||
| 02 | 11:50 | NE 13 | 16.09 | Showers in Vicinity | SCT030 | 30 | 25 | 75% | 36 | 76.25 | 0.0 | ||||||
| 02 | 10:50 | Calm | 16.09 | Mostly Cloudy | BKN015 | 30 | 27 | 84% | 39 | 76.28 | 0.0 | ||||||
| 02 | 09:50 | NE 7 | 16.09 | Mostly Cloudy | BKN013 | 28 | 26 | 89% | 34 | 76.28 | 0.0 | ||||||
| 02 | 08:50 | NE 9 | 16.09 | Mostly Cloudy | SCT006 BKN029 | 27 | 26 | 94% | 31 | 76.28 | 0.0 | ||||||
| 02 | 07:50 | N 6 | 16.09 | Partly Cloudy | FEW005 SCT020 | 25 | 25 | 100% | 25 | 76.25 | 0.0 | ||||||
| 02 | 06:50 | N 6 | 16.09 | Clear | SKC | 25 | 25 | 100% | 25 | 76.2 | 0.0 | ||||||
| 02 | 05:50 | N 7 | 16.09 | Clear | SKC | 25 | 25 | 100% | 25 | 76.17 | 0.0 | ||||||
| 02 | 04:50 | Calm | 16.09 | A Few Clouds | FEW032 | 25 | 25 | 100% | 25 | 76.15 | 0.0 | ||||||
| 02 | 03:50 | Calm | 16.09 | Fair | CLR | 25 | 25 | 100% | 25 | 76.15 | 0.0 | ||||||
| 02 | 02:50 | Calm | 16.09 | Fair | CLR | 25 | 25 | 100% | 25 | 76.17 | 0.0 | ||||||
| 02 | 01:50 | Calm | 16.09 | Fair | CLR | 26 | 26 | 100% | 28 | 76.23 | 0.0 | ||||||
| 02 | 00:50 | Calm | 16.09 | Fair | CLR | 26 | 26 | 100% | 28 | 76.23 | 0.0 | ||||||
| Date | Time (edt) | Wind (kph) | Vis. (km) | Weather | Sky Cond. | Air | Dwpt | Max. | Min. | Relative Humidity | Wind Chill (°C) | Heat Index (°C) | altimeter (cm) | sea level (mb) | 1 hr | 3 hr | 6 hr |
| 6 hour | |||||||||||||||||
| Temperature (ºC) | Pressure | Precipitation (cm) | |||||||||||||||